Time;durP1;ratioP1;P1;durP2;ratioP2;P2;SDS_P1;SDS_P2;PMS_P1;PMS_P2;Temp;Humidity;BMP_temperature;BMP_pressure;BME280_temperature;BME280_humidity;BME280_pressure;Samples;Min_cycle;Max_cycle;Signal;HPM_P1;HPM_P2
2021/08/24 00:01:00;;;;;;;7.03;3.65;;;16.10;92.00;;;;;;5026395;28;20025;-66
2021/08/24 00:03:25;;;;;;;5.40;3.20;;;16.10;91.90;;;;;;5026641;28;21505;-66
2021/08/24 00:05:51;;;;;;;6.78;3.30;;;16.00;91.90;;;;;;5027126;28;20025;-67
2021/08/24 00:08:17;;;;;;;6.57;3.30;;;16.00;92.00;;;;;;5028742;28;20029;-65
2021/08/24 00:10:51;;;;;;;7.72;3.50;;;16.00;92.10;;;;;;5027611;28;20063;-66
2021/08/24 00:13:18;;;;;;;6.72;3.33;;;16.00;92.10;;;;;;5030807;28;20041;-66
2021/08/24 00:15:44;;;;;;;5.97;3.78;;;15.90;92.20;;;;;;5029628;28;20029;-65
2021/08/24 00:18:11;;;;;;;6.05;3.30;;;16.00;92.30;;;;;;5031474;28;20056;-66
2021/08/24 00:20:38;;;;;;;5.70;3.30;;;15.90;92.30;;;;;;5032006;28;20044;-67
2021/08/24 00:23:08;;;;;;;5.00;3.00;;;15.90;92.40;;;;;;5029690;28;20029;-66
2021/08/24 00:25:35;;;;;;;5.40;3.20;;;15.80;92.40;;;;;;5029564;28;20475;-66
2021/08/24 00:28:00;;;;;;;4.00;2.97;;;15.80;92.50;;;;;;5029561;28;20033;-66
2021/08/24 00:30:26;;;;;;;5.85;3.05;;;15.80;92.50;;;;;;5029321;28;20472;-66
2021/08/24 00:32:52;;;;;;;4.80;3.25;;;15.80;92.60;;;;;;5028499;28;20098;-64
2021/08/24 00:35:18;;;;;;;5.53;3.40;;;15.80;92.60;;;;;;5029476;28;20256;-65
2021/08/24 00:37:44;;;;;;;6.40;3.17;;;15.80;92.70;;;;;;5028129;28;20067;-66
2021/08/24 00:40:10;;;;;;;4.70;3.00;;;15.70;92.60;;;;;;5030298;28;20706;-65
2021/08/24 00:42:37;;;;;;;5.72;3.50;;;15.70;92.60;;;;;;5031334;28;20112;-66
2021/08/24 00:45:06;;;;;;;5.18;3.20;;;15.70;92.60;;;;;;5030467;28;20029;-65
2021/08/24 00:47:34;;;;;;;4.78;2.83;;;15.70;92.60;;;;;;5030055;28;20041;-67
2021/08/24 00:50:08;;;;;;;4.78;3.17;;;15.60;92.70;;;;;;5030360;28;20152;-65
2021/08/24 00:52:34;;;;;;;5.45;3.33;;;15.60;92.90;;;;;;5027388;28;20401;-66
2021/08/24 00:55:01;;;;;;;4.97;2.75;;;15.60;92.80;;;;;;5030930;28;20032;-65
2021/08/24 00:57:27;;;;;;;5.90;3.00;;;15.60;92.70;;;;;;5030005;28;20033;-67
2021/08/24 00:59:53;;;;;;;4.25;3.10;;;15.60;92.70;;;;;;5013040;28;20036;-66
2021/08/24 01:02:22;;;;;;;4.43;2.70;;;15.60;92.70;;;;;;5028327;28;20037;-66
2021/08/24 01:04:50;;;;;;;4.75;2.50;;;15.50;92.70;;;;;;5028350;28;20858;-65
2021/08/24 01:07:24;;;;;;;5.13;2.58;;;15.50;92.70;;;;;;5027990;28;20025;-66
2021/08/24 01:10:09;;;;;;;5.57;2.85;;;15.40;92.80;;;;;;5012040;28;20021;-66
2021/08/24 01:12:55;;;;;;;5.80;3.08;;;15.50;92.80;;;;;;5030054;28;20033;-66
2021/08/24 01:15:43;;;;;;;5.68;2.75;;;15.50;92.80;;;;;;5030000;28;20527;-66
2021/08/24 01:18:27;;;;;;;4.78;2.90;;;15.40;92.80;;;;;;5025187;28;20435;-66
2021/08/24 01:20:58;;;;;;;5.90;3.17;;;15.40;92.80;;;;;;5029260;28;20047;-66
2021/08/24 01:23:46;;;;;;;4.40;2.97;;;15.40;92.80;;;;;;5030408;28;20037;-65
2021/08/24 01:26:19;;;;;;;4.38;3.05;;;15.30;92.80;;;;;;5031061;28;20076;-66
2021/08/24 01:28:47;;;;;;;5.22;3.15;;;15.30;92.90;;;;;;5027758;28;20034;-66
2021/08/24 01:31:46;;;;;;;4.28;2.67;;;15.30;92.90;;;;;;5027229;28;20625;-66
2021/08/24 01:34:51;;;;;;;4.07;2.60;;;15.30;93.00;;;;;;5028657;28;20029;-65
2021/08/24 01:37:35;;;;;;;5.82;2.90;;;15.20;92.90;;;;;;5029608;28;20036;-66
2021/08/24 01:40:13;;;;;;;5.90;2.97;;;15.20;93.10;;;;;;5029938;28;20679;-66
2021/08/24 01:42:41;;;;;;;5.10;2.97;;;15.20;93.10;;;;;;5028812;28;20438;-66
2021/08/24 01:45:30;;;;;;;4.80;2.58;;;15.10;93.10;;;;;;5028960;28;20025;-65
2021/08/24 01:48:10;;;;;;;3.90;2.50;;;15.10;93.10;;;;;;5029425;28;20057;-66
2021/08/24 01:50:41;;;;;;;5.97;3.10;;;15.10;93.10;;;;;;5028668;28;20029;-66
2021/08/24 01:53:18;;;;;;;6.97;2.60;;;15.10;93.10;;;;;;5029584;28;20033;-66
2021/08/24 01:55:51;;;;;;;4.10;2.70;;;15.10;93.10;;;;;;5027351;28;20181;-66
2021/08/24 01:58:26;;;;;;;3.95;2.28;;;15.10;93.20;;;;;;5030073;28;20025;-67
2021/08/24 02:00:56;;;;;;;4.13;2.60;;;15.10;93.20;;;;;;5028198;28;20036;-66
2021/08/24 02:03:32;;;;;;;6.68;3.13;;;15.00;93.20;;;;;;5029464;28;20033;-65
2021/08/24 02:06:22;;;;;;;5.90;2.92;;;15.00;93.30;;;;;;5030267;28;20029;-65
2021/08/24 02:08:52;;;;;;;5.00;2.58;;;15.00;93.30;;;;;;5027330;28;20075;-66
2021/08/24 02:11:18;;;;;;;3.80;2.50;;;15.00;93.30;;;;;;5028469;28;20084;-67
2021/08/24 02:13:48;;;;;;;6.03;2.97;;;15.00;93.30;;;;;;5029502;28;20036;-66
2021/08/24 02:16:20;;;;;;;4.00;2.58;;;15.00;93.40;;;;;;5028105;28;20025;-67
2021/08/24 02:18:56;;;;;;;5.10;2.50;;;15.00;93.40;;;;;;5026192;28;20040;-66
2021/08/24 02:21:29;;;;;;;4.13;2.50;;;15.00;93.40;;;;;;5029472;28;20088;-66
2021/08/24 02:23:59;;;;;;;4.60;2.45;;;14.90;93.40;;;;;;5028297;28;20025;-66
2021/08/24 02:26:28;;;;;;;4.03;2.92;;;14.90;93.40;;;;;;5027525;28;20033;-66
2021/08/24 02:28:56;;;;;;;5.97;2.70;;;14.90;93.40;;;;;;5028546;28;20033;-66
2021/08/24 02:31:38;;;;;;;6.43;3.20;;;14.90;93.40;;;;;;5028726;28;20069;-65
2021/08/24 02:34:23;;;;;;;3.50;2.30;;;14.90;93.40;;;;;;5026801;28;20061;-66
2021/08/24 02:37:12;;;;;;;4.50;2.47;;;14.90;93.50;;;;;;5027090;28;20033;-66
2021/08/24 02:39:52;;;;;;;5.78;3.10;;;14.80;93.40;;;;;;5026414;28;20041;-67
2021/08/24 02:42:24;;;;;;;6.80;3.00;;;14.80;93.40;;;;;;5027522;28;20113;-66
2021/08/24 02:44:55;;;;;;;4.40;2.83;;;14.80;93.50;;;;;;5027785;28;20049;-67
2021/08/24 02:47:22;;;;;;;5.82;2.70;;;14.80;93.60;;;;;;5028648;28;20064;-66
2021/08/24 02:49:49;;;;;;;3.65;2.45;;;14.70;93.60;;;;;;5025914;28;20444;-65
2021/08/24 02:52:15;;;;;;;4.75;2.85;;;14.70;93.60;;;;;;5024852;28;20034;-65
2021/08/24 02:54:44;;;;;;;3.78;2.47;;;14.70;93.60;;;;;;5010153;28;20036;-66
2021/08/24 02:57:10;;;;;;;6.10;2.83;;;14.70;93.70;;;;;;5027475;28;20036;-65
2021/08/24 02:59:37;;;;;;;4.05;2.53;;;14.70;93.70;;;;;;5028256;28;20033;-66
2021/08/24 03:02:04;;;;;;;3.85;2.63;;;14.60;93.80;;;;;;5027357;28;20069;-66
2021/08/24 03:04:30;;;;;;;4.38;2.50;;;14.60;94.00;;;;;;5029012;28;20025;-66
2021/08/24 03:07:02;;;;;;;7.03;3.13;;;14.60;93.80;;;;;;5025973;28;20039;-66
2021/08/24 03:09:31;;;;;;;4.32;3.35;;;14.60;93.80;;;;;;5028153;28;20083;-66
2021/08/24 03:12:17;;;;;;;4.68;2.95;;;14.60;93.90;;;;;;5026411;28;20030;-65
2021/08/24 03:15:22;;;;;;;11.45;3.25;;;14.60;93.90;;;;;;5027526;28;20029;-66
2021/08/24 03:17:55;;;;;;;4.50;2.58;;;14.50;93.90;;;;;;4972865;28;20045;-65
2021/08/24 03:20:25;;;;;;;4.03;2.95;;;14.50;94.10;;;;;;5027850;28;20040;-65
2021/08/24 03:22:52;;;;;;;4.57;2.78;;;14.50;93.90;;;;;;5028009;28;20048;-65
2021/08/24 03:25:18;;;;;;;6.30;3.35;;;14.50;94.00;;;;;;5026259;28;20041;-65
2021/08/24 03:27:46;;;;;;;5.13;3.25;;;14.50;94.00;;;;;;5010144;28;20040;-66
2021/08/24 03:30:16;;;;;;;4.28;2.80;;;14.50;94.00;;;;;;5025722;28;20025;-66
2021/08/24 03:32:42;;;;;;;5.03;3.50;;;14.50;94.00;;;;;;5025035;28;20034;-66
2021/08/24 03:35:09;;;;;;;5.03;2.90;;;14.40;93.90;;;;;;5027722;28;20528;-66
2021/08/24 03:37:35;;;;;;;9.63;3.22;;;14.40;94.00;;;;;;5024415;28;20048;-65
2021/08/24 03:40:03;;;;;;;5.45;3.47;;;14.40;94.10;;;;;;5029025;28;20034;-65
2021/08/24 03:42:28;;;;;;;7.35;3.65;;;14.40;94.10;;;;;;5030980;28;20044;-66
2021/08/24 03:44:54;;;;;;;7.15;4.70;;;14.30;94.10;;;;;;5013481;28;20021;-65
2021/08/24 03:47:20;;;;;;;4.80;3.42;;;14.30;94.20;;;;;;5031045;28;20029;-67
2021/08/24 03:49:45;;;;;;;5.78;3.97;;;14.30;94.20;;;;;;5031317;28;20044;-66
2021/08/24 03:52:11;;;;;;;6.13;3.88;;;14.30;94.20;;;;;;5030663;28;20037;-67
2021/08/24 03:54:37;;;;;;;7.82;4.70;;;14.30;94.20;;;;;;5030989;28;20117;-66
2021/08/24 03:57:03;;;;;;;7.07;3.67;;;14.20;94.30;;;;;;5030523;28;20037;-66
2021/08/24 03:59:28;;;;;;;6.15;4.57;;;14.20;94.30;;;;;;5031281;28;20476;-67
2021/08/24 04:01:54;;;;;;;6.78;4.43;;;14.20;94.40;;;;;;5030579;28;20113;-67
2021/08/24 04:04:20;;;;;;;7.68;4.40;;;14.20;94.40;;;;;;5030430;28;20484;-66
2021/08/24 04:06:45;;;;;;;5.65;3.88;;;14.20;94.50;;;;;;5027900;28;20040;-66
2021/08/24 04:09:11;;;;;;;6.25;3.33;;;14.20;94.40;;;;;;5028293;28;20079;-67
2021/08/24 04:11:38;;;;;;;7.28;4.65;;;14.20;94.40;;;;;;5031283;28;20030;-67
2021/08/24 04:14:03;;;;;;;7.53;5.10;;;14.10;94.60;;;;;;5030432;28;20036;-66
2021/08/24 04:16:29;;;;;;;7.93;4.18;;;14.10;94.50;;;;;;5030958;28;20046;-65
2021/08/24 04:18:55;;;;;;;6.93;4.32;;;14.10;94.60;;;;;;5031160;28;20025;-66
2021/08/24 04:21:20;;;;;;;8.48;5.13;;;14.10;94.60;;;;;;5030099;28;20502;-67
2021/08/24 04:23:48;;;;;;;7.13;4.53;;;14.10;94.50;;;;;;5029130;28;20387;-66
2021/08/24 04:26:14;;;;;;;6.13;4.60;;;14.10;94.80;;;;;;5030786;28;20025;-66
2021/08/24 04:28:39;;;;;;;6.95;4.60;;;14.10;94.80;;;;;;5029931;28;20040;-65
2021/08/24 04:31:08;;;;;;;7.38;4.30;;;14.00;94.70;;;;;;5010966;28;20116;-66
2021/08/24 04:33:34;;;;;;;7.40;4.78;;;14.00;94.70;;;;;;5030139;28;20871;-67
2021/08/24 04:36:01;;;;;;;8.55;5.28;;;14.00;94.70;;;;;;5031496;28;20037;-74
2021/08/24 04:38:28;;;;;;;6.75;4.85;;;14.00;94.70;;;;;;5028473;28;20563;-66
2021/08/24 04:40:54;;;;;;;9.07;4.75;;;14.00;94.70;;;;;;5027152;28;20116;-66
2021/08/24 04:43:21;;;;;;;7.95;5.18;;;14.10;94.80;;;;;;5028179;28;20030;-66
2021/08/24 04:45:48;;;;;;;7.03;4.22;;;14.00;94.80;;;;;;5026838;28;20034;-67
2021/08/24 04:48:14;;;;;;;9.02;5.00;;;14.00;94.70;;;;;;5027101;28;20048;-65
2021/08/24 04:50:41;;;;;;;8.35;4.25;;;14.10;95.00;;;;;;5028078;28;20052;-65
2021/08/24 04:53:07;;;;;;;7.07;4.72;;;14.10;94.80;;;;;;5025568;28;20037;-65
2021/08/24 04:55:34;;;;;;;8.45;5.53;;;14.10;94.80;;;;;;5028587;28;20025;-65
2021/08/24 04:58:02;;;;;;;9.95;5.40;;;14.00;94.90;;;;;;5028952;28;20484;-65
2021/08/24 05:00:32;;;;;;;6.28;4.25;;;14.10;95.10;;;;;;5029131;28;20026;-65
2021/08/24 05:02:58;;;;;;;6.15;4.13;;;14.10;95.00;;;;;;5026290;28;20480;-65
2021/08/24 05:05:24;;;;;;;7.28;4.45;;;14.10;95.00;;;;;;5025843;28;20038;-65
2021/08/24 05:07:50;;;;;;;8.05;5.40;;;14.20;95.00;;;;;;5026726;28;20034;-65
2021/08/24 05:10:15;;;;;;;8.40;4.57;;;14.20;95.00;;;;;;5031584;28;20510;-65
2021/08/24 05:12:41;;;;;;;6.40;4.53;;;14.20;95.00;;;;;;5027834;28;20029;-66
2021/08/24 05:15:07;;;;;;;8.20;4.75;;;14.20;95.00;;;;;;5010512;28;20088;-66
2021/08/24 05:17:34;;;;;;;7.72;4.88;;;14.30;95.00;;;;;;5029330;28;20968;-66
2021/08/24 05:20:00;;;;;;;11.50;6.20;;;14.30;95.00;;;;;;5029700;28;20107;-67
2021/08/24 05:22:25;;;;;;;7.40;4.97;;;14.30;95.20;;;;;;5027640;28;20044;-65
2021/08/24 05:24:51;;;;;;;7.68;5.40;;;14.30;95.30;;;;;;5027543;28;20033;-66
2021/08/24 05:27:17;;;;;;;8.43;5.38;;;14.30;95.30;;;;;;5029247;28;20025;-67
2021/08/24 05:29:42;;;;;;;9.38;5.80;;;14.40;95.40;;;;;;5031019;28;20492;-66
2021/08/24 05:32:08;;;;;;;9.05;5.70;;;14.40;95.50;;;;;;5030222;28;20108;-66
2021/08/24 05:34:34;;;;;;;9.10;4.97;;;14.40;95.40;;;;;;5030210;28;20061;-67
2021/08/24 05:37:00;;;;;;;8.95;5.10;;;14.50;95.60;;;;;;5028488;28;20033;-68
2021/08/24 05:39:25;;;;;;;6.20;4.88;;;14.50;95.60;;;;;;5027402;28;20056;-72
2021/08/24 05:41:51;;;;;;;8.25;5.18;;;14.50;95.50;;;;;;5011968;28;20087;-66
2021/08/24 05:44:17;;;;;;;7.18;4.50;;;14.60;95.50;;;;;;5025273;28;20559;-65
2021/08/24 05:46:43;;;;;;;7.38;4.70;;;14.70;95.50;;;;;;5029408;28;20029;-65
2021/08/24 05:49:09;;;;;;;8.77;5.32;;;14.70;95.30;;;;;;5030570;28;20431;-68
2021/08/24 05:51:37;;;;;;;8.18;5.13;;;14.80;95.30;;;;;;5029265;28;20029;-67
2021/08/24 05:54:04;;;;;;;7.97;4.40;;;14.80;95.30;;;;;;5030126;28;20029;-67
2021/08/24 05:56:30;;;;;;;7.18;4.22;;;14.90;95.40;;;;;;5027853;28;20044;-66
2021/08/24 05:58:56;;;;;;;6.15;4.22;;;14.90;95.40;;;;;;5026508;28;20037;-66
2021/08/24 06:01:25;;;;;;;6.00;3.72;;;14.90;95.20;;;;;;5024300;28;20037;-66
2021/08/24 06:03:51;;;;;;;6.63;4.28;;;14.90;95.30;;;;;;5026440;28;20034;-66
2021/08/24 06:06:23;;;;;;;5.28;3.55;;;15.00;95.20;;;;;;5025925;28;20104;-69
2021/08/24 06:08:49;;;;;;;;;;;15.00;95.20;;;;;;5010373;28;20502;-65
2021/08/24 06:11:21;;;;;;;7.50;4.47;;;15.00;95.20;;;;;;5011683;28;20004;-66
2021/08/24 06:13:47;;;;;;;7.30;4.57;;;15.10;95.20;;;;;;5029114;28;20507;-65
2021/08/24 06:16:13;;;;;;;8.98;5.40;;;15.10;95.20;;;;;;5030617;28;20083;-66
2021/08/24 06:18:39;;;;;;;8.48;4.47;;;15.20;95.20;;;;;;5026477;28;21600;-67
2021/08/24 06:21:05;;;;;;;6.57;4.22;;;15.20;95.10;;;;;;5018531;28;20034;-67
2021/08/24 06:23:31;;;;;;;8.18;4.38;;;15.20;95.00;;;;;;5018534;28;20032;-66
2021/08/24 06:25:57;;;;;;;8.70;4.60;;;15.30;95.00;;;;;;5019353;28;20491;-67
2021/08/24 06:28:23;;;;;;;7.03;4.03;;;15.40;95.00;;;;;;5018837;28;20529;-67
2021/08/24 06:30:49;;;;;;;6.75;4.00;;;15.40;94.90;;;;;;5019822;28;20033;-68
2021/08/24 06:33:15;;;;;;;5.97;3.35;;;15.50;94.90;;;;;;5021651;28;20033;-66
2021/08/24 06:35:41;;;;;;;5.90;2.90;;;15.60;94.80;;;;;;5022702;28;20041;-67
2021/08/24 06:38:07;;;;;;;4.78;3.28;;;15.60;94.70;;;;;;5018710;28;20025;-66
2021/08/24 06:40:33;;;;;;;5.32;3.10;;;15.60;94.60;;;;;;5017014;28;20208;-66
2021/08/24 06:42:59;;;;;;;9.15;3.42;;;15.60;94.50;;;;;;5030229;28;20104;-66
2021/08/24 06:45:28;;;;;;;5.07;2.88;;;15.70;94.20;;;;;;5026379;28;20033;-66
2021/08/24 06:47:54;;;;;;;4.22;2.63;;;15.70;94.00;;;;;;5028198;28;20109;-66
2021/08/24 06:50:22;;;;;;;4.95;2.50;;;15.80;94.00;;;;;;5030240;28;20041;-66
2021/08/24 06:52:48;;;;;;;5.20;2.65;;;15.80;94.00;;;;;;5021166;28;20056;-66
2021/08/24 06:55:14;;;;;;;4.97;2.72;;;15.90;93.80;;;;;;5024531;28;20116;-65
2021/08/24 06:57:41;;;;;;;5.15;2.13;;;15.90;93.30;;;;;;5018883;28;20457;-66
2021/08/24 07:00:12;;;;;;;4.38;2.13;;;16.00;93.30;;;;;;5017257;28;20030;-67
2021/08/24 07:02:39;;;;;;;3.65;2.20;;;16.00;93.20;;;;;;5015213;28;20048;-67
2021/08/24 07:05:05;;;;;;;4.30;2.17;;;16.10;92.90;;;;;;5023216;28;20622;-67
2021/08/24 07:07:31;;;;;;;3.38;2.00;;;16.10;92.80;;;;;;5027281;28;20033;-67
2021/08/24 07:09:57;;;;;;;5.45;2.20;;;16.10;92.70;;;;;;5028743;28;20482;-66
2021/08/24 07:12:23;;;;;;;4.30;2.35;;;16.20;92.60;;;;;;5027697;28;20029;-65
2021/08/24 07:14:48;;;;;;;3.88;2.10;;;16.30;92.30;;;;;;5028131;28;20112;-66
2021/08/24 07:17:15;;;;;;;4.75;2.50;;;16.40;92.00;;;;;;5029106;28;20132;-66
2021/08/24 07:19:41;;;;;;;3.45;1.80;;;16.40;91.80;;;;;;5028145;28;20392;-67
2021/08/24 07:22:07;;;;;;;3.72;1.90;;;16.40;91.90;;;;;;5029570;28;20071;-65
2021/08/24 07:24:33;;;;;;;3.85;1.85;;;16.50;92.00;;;;;;5009515;28;20085;-65
2021/08/24 07:26:58;;;;;;;4.30;2.25;;;16.50;92.10;;;;;;5028989;28;20444;-65
2021/08/24 07:29:24;;;;;;;5.03;2.30;;;16.50;92.20;;;;;;5029555;28;20483;-66
2021/08/24 07:31:50;;;;;;;3.92;1.92;;;16.50;92.20;;;;;;5029521;28;20464;-66
2021/08/24 07:34:16;;;;;;;4.60;2.10;;;16.50;92.10;;;;;;5028576;28;20033;-66
2021/08/24 07:36:42;;;;;;;4.07;2.42;;;16.50;92.00;;;;;;5029247;28;20449;-67
2021/08/24 07:39:08;;;;;;;4.10;2.38;;;16.50;92.10;;;;;;5027863;28;20037;-66
2021/08/24 07:41:35;;;;;;;6.38;1.92;;;16.60;92.20;;;;;;5009029;28;20033;-66
2021/08/24 07:44:00;;;;;;;3.33;1.65;;;16.60;92.20;;;;;;5028093;28;20025;-66
2021/08/24 07:46:26;;;;;;;3.40;2.03;;;16.70;91.90;;;;;;5029035;28;20034;-66
2021/08/24 07:48:52;;;;;;;5.80;2.55;;;16.70;91.80;;;;;;5028356;28;20034;-67
2021/08/24 07:51:21;;;;;;;4.40;2.40;;;16.80;91.90;;;;;;5028911;28;20430;-67
2021/08/24 07:53:50;;;;;;;3.88;2.10;;;16.80;91.70;;;;;;5027625;28;20032;-67
2021/08/24 07:56:16;;;;;;;3.15;1.60;;;16.80;91.60;;;;;;5029102;28;20048;-66
2021/08/24 07:58:42;;;;;;;3.60;2.17;;;16.90;91.60;;;;;;5028203;28;20042;-67
2021/08/24 08:01:08;;;;;;;3.33;1.67;;;16.90;91.50;;;;;;5027623;28;20056;-65
2021/08/24 08:03:33;;;;;;;2.88;1.85;;;17.00;91.50;;;;;;5026892;28;20029;-66
2021/08/24 08:05:59;;;;;;;3.40;1.83;;;17.00;91.20;;;;;;5029240;28;20387;-67
2021/08/24 08:08:25;;;;;;;3.45;1.90;;;17.00;91.10;;;;;;5027492;28;20554;-67
2021/08/24 08:10:51;;;;;;;4.45;2.30;;;17.00;90.90;;;;;;5028763;28;20565;-66
2021/08/24 08:13:16;;;;;;;2.75;1.70;;;17.10;91.00;;;;;;5027426;28;20581;-66
2021/08/24 08:15:43;;;;;;;6.43;2.08;;;17.10;90.90;;;;;;5029505;28;20498;-65
2021/08/24 08:18:09;;;;;;;3.15;1.65;;;17.20;90.70;;;;;;5027096;28;20037;-66
2021/08/24 08:20:37;;;;;;;5.53;1.95;;;17.30;90.40;;;;;;5029321;28;20029;-66
2021/08/24 08:23:05;;;;;;;3.92;1.98;;;17.30;90.30;;;;;;5027657;28;20030;-66
2021/08/24 08:25:31;;;;;;;2.50;1.65;;;17.40;89.90;;;;;;5009977;28;20064;-67
2021/08/24 08:27:57;;;;;;;4.10;2.35;;;17.50;89.30;;;;;;5032221;28;20061;-67
2021/08/24 08:30:23;;;;;;;2.33;1.42;;;17.60;87.90;;;;;;5032502;28;20021;-66
2021/08/24 08:32:49;;;;;;;4.55;2.20;;;17.60;87.60;;;;;;5030448;28;20034;-66
2021/08/24 08:35:17;;;;;;;5.35;1.80;;;17.70;87.00;;;;;;5031610;28;20044;-66
2021/08/24 08:37:44;;;;;;;2.95;1.60;;;17.70;85.40;;;;;;5031670;28;20450;-66
2021/08/24 08:40:12;;;;;;;3.22;1.65;;;17.80;85.00;;;;;;5031996;28;20109;-67
2021/08/24 08:42:46;;;;;;;4.70;2.15;;;17.80;84.30;;;;;;5031139;28;20045;-66
2021/08/24 08:45:26;;;;;;;4.68;2.00;;;17.80;83.30;;;;;;5031814;28;20108;-66
2021/08/24 08:48:02;;;;;;;4.97;2.25;;;17.80;82.70;;;;;;5032032;28;20079;-67
2021/08/24 08:50:58;;;;;;;3.55;1.88;;;17.90;81.10;;;;;;5013480;28;20029;-67
2021/08/24 08:53:40;;;;;;;3.75;2.10;;;17.90;81.10;;;;;;5031201;28;20029;-66
2021/08/24 08:56:13;;;;;;;4.18;1.75;;;17.90;80.80;;;;;;5014627;28;20029;-67
2021/08/24 08:58:57;;;;;;;4.07;1.90;;;17.90;80.50;;;;;;5035635;28;20029;-66
2021/08/24 09:01:28;;;;;;;4.68;2.10;;;18.00;79.50;;;;;;5030577;28;20388;-66
2021/08/24 09:04:42;;;;;;;4.07;1.80;;;18.10;80.00;;;;;;5032194;28;20025;-66
2021/08/24 09:07:31;;;;;;;4.07;2.25;;;18.10;78.50;;;;;;4990336;28;20041;-66
2021/08/24 09:09:56;;;;;;;3.72;1.85;;;18.10;79.30;;;;;;5032583;28;20129;-67
2021/08/24 09:12:25;;;;;;;3.75;2.20;;;18.20;79.50;;;;;;5032112;28;20097;-66
2021/08/24 09:14:54;;;;;;;3.67;1.90;;;18.30;79.80;;;;;;5032469;28;20847;-66
2021/08/24 09:17:27;;;;;;;4.57;2.13;;;18.40;79.70;;;;;;5028955;28;20033;-66
2021/08/24 09:20:00;;;;;;;3.22;1.95;;;18.50;78.40;;;;;;5031914;28;20037;-67
2021/08/24 09:22:26;;;;;;;4.20;2.03;;;18.50;78.00;;;;;;5013743;28;20034;-66
2021/08/24 09:24:52;;;;;;;3.03;2.33;;;18.60;77.50;;;;;;5031756;28;20459;-67
2021/08/24 09:27:49;;;;;;;3.28;1.90;;;18.70;77.70;;;;;;5031434;28;20110;-66
2021/08/24 09:30:16;;;;;;;3.45;2.00;;;18.70;77.50;;;;;;5026609;28;20380;-67
2021/08/24 09:32:42;;;;;;;3.13;2.03;;;18.90;77.10;;;;;;5029429;28;20033;-66
2021/08/24 09:35:32;;;;;;;4.22;2.00;;;19.00;75.70;;;;;;5031026;28;20072;-66
2021/08/24 09:38:01;;;;;;;4.23;2.10;;;19.10;74.70;;;;;;5030643;28;20033;-67
2021/08/24 09:40:40;;;;;;;5.68;2.17;;;19.20;76.00;;;;;;5030876;28;20123;-66
2021/08/24 09:43:38;;;;;;;3.78;2.03;;;19.20;76.20;;;;;;5031631;28;20037;-66
2021/08/24 09:46:11;;;;;;;3.75;2.03;;;19.30;76.40;;;;;;4995783;28;20395;-67
2021/08/24 09:48:58;;;;;;;4.10;1.95;;;19.30;76.00;;;;;;5029943;28;20091;-66
2021/08/24 09:51:50;;;;;;;4.65;2.08;;;19.30;76.60;;;;;;5029454;28;20045;-67
2021/08/24 09:54:37;;;;;;;3.95;2.10;;;19.40;76.70;;;;;;5029454;28;20098;-66
2021/08/24 09:57:12;;;;;;;3.95;2.05;;;19.50;77.40;;;;;;5031116;28;20037;-67
2021/08/24 09:59:44;;;;;;;4.32;2.20;;;19.60;77.50;;;;;;5029959;28;20392;-67
2021/08/24 10:02:36;;;;;;;3.50;1.95;;;19.70;76.70;;;;;;5031584;28;20383;-67
2021/08/24 10:05:03;;;;;;;4.07;2.25;;;19.90;76.10;;;;;;5031365;28;20021;-66
2021/08/24 10:07:50;;;;;;;2.90;1.70;;;20.00;76.60;;;;;;5029594;28;20451;-67
2021/08/24 10:10:18;;;;;;;3.88;2.10;;;20.20;75.60;;;;;;5030318;28;20026;-68
2021/08/24 10:12:46;;;;;;;4.43;2.13;;;20.30;74.60;;;;;;5028470;28;20026;-69
2021/08/24 10:15:35;;;;;;;4.13;1.58;;;20.30;73.60;;;;;;5022214;28;20045;-68
2021/08/24 10:18:13;;;;;;;3.20;2.25;;;20.30;72.80;;;;;;5007116;28;20037;-67
2021/08/24 10:21:04;;;;;;;3.80;1.95;;;20.30;71.70;;;;;;5028313;28;20049;-69
2021/08/24 10:23:34;;;;;;;2.63;1.80;;;20.40;72.00;;;;;;5028545;28;20502;-68
2021/08/24 10:26:02;;;;;;;4.75;2.05;;;20.40;71.10;;;;;;5026073;28;20026;-68
2021/08/24 10:28:45;;;;;;;3.90;1.92;;;20.40;70.80;;;;;;5028530;28;20033;-70
2021/08/24 10:31:40;;;;;;;3.85;1.70;;;20.40;71.90;;;;;;5025705;28;20268;-69
2021/08/24 10:34:30;;;;;;;3.63;1.90;;;20.50;71.90;;;;;;5028807;28;20475;-68
2021/08/24 10:37:27;;;;;;;3.08;1.65;;;20.50;72.10;;;;;;5026476;28;20037;-70
2021/08/24 10:40:15;;;;;;;3.70;2.05;;;20.60;69.70;;;;;;5008497;28;20052;-70
2021/08/24 10:42:57;;;;;;;4.53;1.90;;;20.60;71.90;;;;;;5005934;28;20136;-68
2021/08/24 10:45:30;;;;;;;3.85;1.80;;;20.80;71.80;;;;;;5026829;28;20029;-70
2021/08/24 10:47:59;;;;;;;3.22;2.05;;;21.00;69.40;;;;;;5009853;28;20372;-70
2021/08/24 10:50:31;;;;;;;4.00;2.17;;;21.10;70.10;;;;;;5027438;28;20033;-69
2021/08/24 10:53:24;;;;;;;3.47;1.90;;;21.20;69.80;;;;;;5028017;28;20083;-70
2021/08/24 10:55:59;;;;;;;4.50;2.35;;;21.20;66.20;;;;;;5007889;28;20045;-70
2021/08/24 10:59:15;;;;;;;3.42;1.95;;;21.10;67.10;;;;;;5027498;28;20038;-69
2021/08/24 11:01:52;;;;;;;5.30;2.22;;;21.20;66.80;;;;;;4983653;28;20064;-69
2021/08/24 11:04:39;;;;;;;3.55;1.83;;;21.30;65.40;;;;;;5026981;28;20068;-69
2021/08/24 11:07:48;;;;;;;2.53;1.58;;;21.30;67.30;;;;;;5026412;28;20033;-70
2021/08/24 11:10:33;;;;;;;3.53;2.08;;;21.60;67.30;;;;;;5027963;28;20025;-68
2021/08/24 11:13:30;;;;;;;4.43;2.13;;;21.80;68.00;;;;;;5027092;28;20021;-70
2021/08/24 11:16:08;;;;;;;4.22;2.00;;;22.20;66.10;;;;;;5026488;28;20470;-68
2021/08/24 11:18:49;;;;;;;4.25;2.30;;;22.50;64.60;;;;;;5027706;28;20043;-68
2021/08/24 11:21:37;;;;;;;5.20;2.50;;;23.20;62.30;;;;;;5027398;28;20049;-70
2021/08/24 11:24:12;;;;;;;3.53;2.35;;;24.00;59.10;;;;;;5024663;28;20022;-69
2021/08/24 11:26:58;;;;;;;5.43;2.78;;;25.70;55.00;;;;;;5024620;28;20033;-70
2021/08/24 11:29:42;;;;;;;4.25;2.70;;;27.60;50.90;;;;;;5011201;28;20034;-69
2021/08/24 11:32:30;;;;;;;3.15;2.20;;;29.30;45.30;;;;;;5026130;28;20071;-69
2021/08/24 11:35:14;;;;;;;3.17;2.38;;;30.50;44.60;;;;;;5011716;28;20672;-72
2021/08/24 11:38:05;;;;;;;3.65;2.30;;;31.70;42.00;;;;;;5027789;28;20121;-69
2021/08/24 11:41:00;;;;;;;2.95;2.17;;;32.80;39.80;;;;;;5019804;28;20099;-69
2021/08/24 11:43:56;;;;;;;3.13;2.45;;;33.40;37.90;;;;;;5024350;28;20132;-70
2021/08/24 11:46:28;;;;;;;3.47;2.75;;;34.10;36.70;;;;;;5028617;28;20403;-70
2021/08/24 11:49:17;;;;;;;3.05;2.40;;;34.60;36.30;;;;;;5026045;28;20032;-69
2021/08/24 11:51:51;;;;;;;3.35;2.35;;;35.00;35.50;;;;;;5017408;28;20050;-69
2021/08/24 11:54:32;;;;;;;3.53;2.65;;;34.50;34.40;;;;;;5028392;28;20034;-69
2021/08/24 11:57:19;;;;;;;3.95;2.95;;;33.20;34.00;;;;;;5028048;28;20022;-73
2021/08/24 11:59:48;;;;;;;4.30;2.15;;;32.60;35.10;;;;;;5029151;28;20496;-69
2021/08/24 12:02:35;;;;;;;3.08;2.33;;;32.10;36.40;;;;;;5029721;28;20029;-70
2021/08/24 12:05:03;;;;;;;4.88;2.35;;;32.20;36.60;;;;;;5031811;28;20563;-71
2021/08/24 12:07:33;;;;;;;3.05;2.35;;;32.00;36.50;;;;;;5030908;28;20128;-69
2021/08/24 12:10:24;;;;;;;3.75;2.83;;;32.00;37.60;;;;;;5031608;28;20491;-69
2021/08/24 12:12:54;;;;;;;3.65;2.60;;;32.00;38.00;;;;;;5023637;28;20446;-70
2021/08/24 12:15:41;;;;;;;3.05;1.98;;;31.40;36.60;;;;;;5031797;28;20064;-71
2021/08/24 12:18:19;;;;;;;3.78;2.28;;;30.80;37.80;;;;;;5031892;28;20025;-70
2021/08/24 12:21:19;;;;;;;3.08;2.33;;;30.00;39.70;;;;;;5013617;28;20415;-70
2021/08/24 12:23:45;;;;;;;3.05;2.15;;;29.60;40.80;;;;;;5029879;28;20032;-71
2021/08/24 12:26:22;;;;;;;4.40;2.40;;;29.10;41.40;;;;;;5012078;28;20414;-71
2021/08/24 12:28:49;;;;;;;2.55;2.03;;;28.60;42.50;;;;;;5031144;28;20048;-69
2021/08/24 12:31:29;;;;;;;3.80;2.42;;;28.20;41.90;;;;;;5030507;28;20554;-70
2021/08/24 12:33:56;;;;;;;3.33;2.22;;;27.90;42.10;;;;;;5030253;28;20069;-68
2021/08/24 12:36:21;;;;;;;3.30;2.10;;;27.80;42.20;;;;;;5031516;28;20415;-69
2021/08/24 12:38:51;;;;;;;3.53;2.10;;;27.40;41.30;;;;;;5030268;28;20029;-69
2021/08/24 12:41:35;;;;;;;3.33;2.28;;;26.80;42.50;;;;;;5029014;28;20103;-69
2021/08/24 12:44:13;;;;;;;4.03;2.50;;;26.10;43.70;;;;;;5014041;28;20032;-71
2021/08/24 12:46:44;;;;;;;4.25;2.13;;;25.40;44.20;;;;;;5031731;28;20602;-69
2021/08/24 12:49:22;;;;;;;2.92;1.85;;;24.70;45.90;;;;;;5030971;28;20384;-68
2021/08/24 12:51:49;;;;;;;4.07;2.42;;;24.30;47.00;;;;;;5030790;28;20059;-69
2021/08/24 12:54:29;;;;;;;3.33;2.00;;;24.60;48.30;;;;;;5030243;28;20523;-69
2021/08/24 12:57:15;;;;;;;5.30;2.50;;;25.90;46.90;;;;;;5029535;28;20095;-70
2021/08/24 12:59:49;;;;;;;3.75;2.47;;;27.40;43.80;;;;;;5030356;28;20029;-69
2021/08/24 13:02:36;;;;;;;2.90;2.05;;;28.60;41.70;;;;;;5030593;28;20037;-70
2021/08/24 13:05:05;;;;;;;3.55;2.28;;;29.70;40.70;;;;;;5030943;28;20030;-71
2021/08/24 13:07:45;;;;;;;3.07;2.20;;;30.10;39.70;;;;;;5029547;28;20188;-70
2021/08/24 13:10:25;;;;;;;5.30;2.17;;;29.40;39.00;;;;;;5029221;28;20017;-69
2021/08/24 13:12:52;;;;;;;5.00;3.88;;;28.20;39.20;;;;;;5029370;28;20401;-68
2021/08/24 13:15:30;;;;;;;4.45;3.28;;;27.60;41.20;;;;;;5030809;28;20136;-70